KHSE

Billy Mitchell Airport

Hatteras, North Carolina, USA
METAR KHSE 210451Z AUTO 23004KT 7SM FEW055 FEW070 26/25 A3006 RMK AO2 SLP179 T02610250 403060244 TSNO
Observed Flight Rules
Aug-21 @ 04:51 UTC (9 hours ago) Visual Flight Rules
Wind Visibility Clouds
230° at 4 knots 7 miles
  • Few at 5,500' AGL
  • Few at 7,000' AGL
Temperatures Readings
Current 26°C / 79°F
Dewpoint 25°C / 77°F
Humidity 94%
Altimeter 30.06" Hg
Pressure 1017.9 hPa
Elevation 3
METAR KHSE 210451Z AUTO 23004KT 7SM FEW055 FEW070 26/25 A3006 RMK AO2 SLP179 T02610250 403060244 TSNO
Observed Flight Rules
Aug-21 @ 04:51 UTC
(9 hours ago)
VFR
Wind Visibility
230° at 4 knots 7 miles
Clouds
  • Few at 5,500' AGL
  • Few at 7,000' AGL
Temperature Dewpoint
26°C / 79°F 25°C / 77°F
Humidity Altimeter Pressure
94% 30.06" Hg 1017.9 hPa